sensor_id;sensor_type;location;lat;lon;timestamp;temperature;humidity
27890;DHT22;15238;49.082;9.102;2023-07-13T00:01:46;19.60;99.90
27890;DHT22;15238;49.082;9.102;2023-07-13T00:03:50;19.50;99.80
27890;DHT22;15238;49.082;9.102;2023-07-13T00:05:58;19.50;99.70
27890;DHT22;15238;49.082;9.102;2023-07-13T00:07:58;19.50;99.60
27890;DHT22;15238;49.082;9.102;2023-07-13T00:09:59;19.50;99.60
27890;DHT22;15238;49.082;9.102;2023-07-13T00:12:00;19.40;99.60
27890;DHT22;15238;49.082;9.102;2023-07-13T00:14:00;19.40;99.60
27890;DHT22;15238;49.082;9.102;2023-07-13T00:16:01;19.40;99.60
27890;DHT22;15238;49.082;9.102;2023-07-13T00:18:01;19.40;99.70
27890;DHT22;15238;49.082;9.102;2023-07-13T00:20:03;19.40;99.90
27890;DHT22;15238;49.082;9.102;2023-07-13T00:22:04;19.40;99.90
27890;DHT22;15238;49.082;9.102;2023-07-13T00:24:06;19.40;99.90
27890;DHT22;15238;49.082;9.102;2023-07-13T00:26:08;19.30;99.90
27890;DHT22;15238;49.082;9.102;2023-07-13T00:28:09;19.30;99.90
27890;DHT22;15238;49.082;9.102;2023-07-13T00:30:10;19.20;99.90
27890;DHT22;15238;49.082;9.102;2023-07-13T00:32:11;19.20;99.90
27890;DHT22;15238;49.082;9.102;2023-07-13T00:34:12;19.20;99.90
27890;DHT22;15238;49.082;9.102;2023-07-13T00:36:12;19.20;99.90
27890;DHT22;15238;49.082;9.102;2023-07-13T00:38:13;19.10;99.90
27890;DHT22;15238;49.082;9.102;2023-07-13T00:40:15;19.00;99.90
27890;DHT22;15238;49.082;9.102;2023-07-13T00:42:16;19.00;99.90
27890;DHT22;15238;49.082;9.102;2023-07-13T00:44:20;19.00;99.90
27890;DHT22;15238;49.082;9.102;2023-07-13T00:46:26;19.00;99.90
27890;DHT22;15238;49.082;9.102;2023-07-13T00:48:31;18.90;99.90
27890;DHT22;15238;49.082;9.102;2023-07-13T00:50:32;18.90;99.90
27890;DHT22;15238;49.082;9.102;2023-07-13T00:52:33;18.90;99.90
27890;DHT22;15238;49.082;9.102;2023-07-13T00:54:41;18.90;99.90
27890;DHT22;15238;49.082;9.102;2023-07-13T00:56:45;18.90;99.90
27890;DHT22;15238;49.082;9.102;2023-07-13T00:58:46;18.80;99.90
27890;DHT22;15238;49.082;9.102;2023-07-13T01:00:47;18.80;99.90
27890;DHT22;15238;49.082;9.102;2023-07-13T01:02:49;18.80;99.90
27890;DHT22;15238;49.082;9.102;2023-07-13T01:04:50;18.70;99.90
27890;DHT22;15238;49.082;9.102;2023-07-13T01:06:51;18.70;99.90
27890;DHT22;15238;49.082;9.102;2023-07-13T01:08:52;18.70;99.90
27890;DHT22;15238;49.082;9.102;2023-07-13T01:10:56;18.60;99.90
27890;DHT22;15238;49.082;9.102;2023-07-13T01:12:58;18.50;99.90
27890;DHT22;15238;49.082;9.102;2023-07-13T01:15:00;18.60;99.90
27890;DHT22;15238;49.082;9.102;2023-07-13T01:17:01;18.50;99.90
27890;DHT22;15238;49.082;9.102;2023-07-13T01:21:39;18.50;99.90
27890;DHT22;15238;49.082;9.102;2023-07-13T01:23:43;18.40;99.90
27890;DHT22;15238;49.082;9.102;2023-07-13T01:25:44;18.40;99.90
27890;DHT22;15238;49.082;9.102;2023-07-13T01:27:45;18.40;99.90
27890;DHT22;15238;49.082;9.102;2023-07-13T01:29:46;18.40;99.90
27890;DHT22;15238;49.082;9.102;2023-07-13T01:31:48;18.40;99.90
27890;DHT22;15238;49.082;9.102;2023-07-13T01:33:48;18.40;99.90
27890;DHT22;15238;49.082;9.102;2023-07-13T01:35:49;18.40;99.90
27890;DHT22;15238;49.082;9.102;2023-07-13T01:37:49;18.30;99.90
27890;DHT22;15238;49.082;9.102;2023-07-13T01:39:50;18.30;99.90
27890;DHT22;15238;49.082;9.102;2023-07-13T01:41:50;18.30;99.90
27890;DHT22;15238;49.082;9.102;2023-07-13T01:43:51;18.30;99.90
27890;DHT22;15238;49.082;9.102;2023-07-13T01:45:51;18.30;99.90
27890;DHT22;15238;49.082;9.102;2023-07-13T01:47:52;18.30;99.90
27890;DHT22;15238;49.082;9.102;2023-07-13T01:49:53;18.20;99.90
27890;DHT22;15238;49.082;9.102;2023-07-13T01:51:53;18.20;99.90
27890;DHT22;15238;49.082;9.102;2023-07-13T01:53:54;18.10;99.90
27890;DHT22;15238;49.082;9.102;2023-07-13T01:55:55;18.00;99.90
27890;DHT22;15238;49.082;9.102;2023-07-13T01:57:56;18.00;99.90
27890;DHT22;15238;49.082;9.102;2023-07-13T01:59:56;17.90;99.90
27890;DHT22;15238;49.082;9.102;2023-07-13T02:01:57;17.90;99.90
27890;DHT22;15238;49.082;9.102;2023-07-13T02:03:57;17.90;99.90
27890;DHT22;15238;49.082;9.102;2023-07-13T02:05:58;17.80;99.90
27890;DHT22;15238;49.082;9.102;2023-07-13T02:07:58;17.70;99.90
27890;DHT22;15238;49.082;9.102;2023-07-13T02:09:59;17.70;99.90
27890;DHT22;15238;49.082;9.102;2023-07-13T02:11:59;17.70;99.90
27890;DHT22;15238;49.082;9.102;2023-07-13T02:14:00;17.60;99.90
27890;DHT22;15238;49.082;9.102;2023-07-13T02:16:02;17.60;99.90
27890;DHT22;15238;49.082;9.102;2023-07-13T02:18:03;17.50;99.90
27890;DHT22;15238;49.082;9.102;2023-07-13T02:20:05;17.50;99.90
27890;DHT22;15238;49.082;9.102;2023-07-13T02:22:05;17.50;99.90
27890;DHT22;15238;49.082;9.102;2023-07-13T02:24:06;17.50;99.90
27890;DHT22;15238;49.082;9.102;2023-07-13T02:26:06;17.50;99.90
27890;DHT22;15238;49.082;9.102;2023-07-13T02:28:07;17.40;99.90
27890;DHT22;15238;49.082;9.102;2023-07-13T02:30:08;17.40;99.90
27890;DHT22;15238;49.082;9.102;2023-07-13T02:32:09;17.40;99.90
27890;DHT22;15238;49.082;9.102;2023-07-13T02:34:10;17.30;99.90
27890;DHT22;15238;49.082;9.102;2023-07-13T02:36:11;17.40;99.90
27890;DHT22;15238;49.082;9.102;2023-07-13T02:38:12;17.30;99.90
27890;DHT22;15238;49.082;9.102;2023-07-13T02:40:13;17.40;99.90
27890;DHT22;15238;49.082;9.102;2023-07-13T02:42:13;17.30;99.90
27890;DHT22;15238;49.082;9.102;2023-07-13T02:44:15;17.40;99.90
27890;DHT22;15238;49.082;9.102;2023-07-13T02:46:15;17.30;99.90
27890;DHT22;15238;49.082;9.102;2023-07-13T02:48:16;17.30;99.90
27890;DHT22;15238;49.082;9.102;2023-07-13T02:50:16;17.30;99.90
27890;DHT22;15238;49.082;9.102;2023-07-13T02:52:17;17.30;99.90
27890;DHT22;15238;49.082;9.102;2023-07-13T02:54:18;17.20;99.90
27890;DHT22;15238;49.082;9.102;2023-07-13T02:56:27;17.10;99.90
27890;DHT22;15238;49.082;9.102;2023-07-13T02:58:28;17.10;99.90
27890;DHT22;15238;49.082;9.102;2023-07-13T03:00:28;17.10;99.90
27890;DHT22;15238;49.082;9.102;2023-07-13T03:02:29;17.10;99.90
27890;DHT22;15238;49.082;9.102;2023-07-13T03:04:30;17.10;99.90
27890;DHT22;15238;49.082;9.102;2023-07-13T03:06:32;17.10;99.90
27890;DHT22;15238;49.082;9.102;2023-07-13T03:08:33;17.10;99.90
27890;DHT22;15238;49.082;9.102;2023-07-13T03:10:34;17.00;99.90
27890;DHT22;15238;49.082;9.102;2023-07-13T03:12:35;16.90;99.90
27890;DHT22;15238;49.082;9.102;2023-07-13T03:14:35;16.90;99.90
27890;DHT22;15238;49.082;9.102;2023-07-13T03:16:36;16.90;99.90
27890;DHT22;15238;49.082;9.102;2023-07-13T03:18:37;16.90;99.90
27890;DHT22;15238;49.082;9.102;2023-07-13T03:20:37;16.80;99.90
27890;DHT22;15238;49.082;9.102;2023-07-13T03:22:38;16.80;99.90
27890;DHT22;15238;49.082;9.102;2023-07-13T03:24:38;16.80;99.90
27890;DHT22;15238;49.082;9.102;2023-07-13T03:26:39;16.80;99.90
27890;DHT22;15238;49.082;9.102;2023-07-13T03:28:40;16.70;99.90
27890;DHT22;15238;49.082;9.102;2023-07-13T03:30:41;16.70;99.90
27890;DHT22;15238;49.082;9.102;2023-07-13T03:32:42;16.70;99.90
27890;DHT22;15238;49.082;9.102;2023-07-13T03:34:42;16.70;99.90
27890;DHT22;15238;49.082;9.102;2023-07-13T03:36:43;16.70;99.90
27890;DHT22;15238;49.082;9.102;2023-07-13T03:38:43;16.70;99.90
27890;DHT22;15238;49.082;9.102;2023-07-13T03:40:44;16.70;99.90
27890;DHT22;15238;49.082;9.102;2023-07-13T03:42:44;16.70;99.90
27890;DHT22;15238;49.082;9.102;2023-07-13T03:44:45;16.70;99.90
27890;DHT22;15238;49.082;9.102;2023-07-13T03:46:52;16.70;99.90
27890;DHT22;15238;49.082;9.102;2023-07-13T03:48:53;16.70;99.90
27890;DHT22;15238;49.082;9.102;2023-07-13T03:50:53;16.60;99.90
27890;DHT22;15238;49.082;9.102;2023-07-13T03:52:54;16.60;99.90
27890;DHT22;15238;49.082;9.102;2023-07-13T03:54:56;16.60;99.90
27890;DHT22;15238;49.082;9.102;2023-07-13T03:56:56;16.60;99.90
27890;DHT22;15238;49.082;9.102;2023-07-13T03:58:57;16.60;99.90
27890;DHT22;15238;49.082;9.102;2023-07-13T04:00:58;16.60;99.90
27890;DHT22;15238;49.082;9.102;2023-07-13T04:02:59;16.50;99.90
27890;DHT22;15238;49.082;9.102;2023-07-13T04:05:00;16.60;99.90
27890;DHT22;15238;49.082;9.102;2023-07-13T04:07:01;16.60;99.90
27890;DHT22;15238;49.082;9.102;2023-07-13T04:09:02;16.60;99.90
27890;DHT22;15238;49.082;9.102;2023-07-13T04:11:06;16.70;99.90
27890;DHT22;15238;49.082;9.102;2023-07-13T04:13:06;16.70;99.90
27890;DHT22;15238;49.082;9.102;2023-07-13T04:15:07;16.80;99.90
27890;DHT22;15238;49.082;9.102;2023-07-13T04:17:08;16.80;99.90
27890;DHT22;15238;49.082;9.102;2023-07-13T04:19:09;16.80;99.90
27890;DHT22;15238;49.082;9.102;2023-07-13T04:21:10;16.80;99.90
27890;DHT22;15238;49.082;9.102;2023-07-13T04:23:11;16.80;99.90
27890;DHT22;15238;49.082;9.102;2023-07-13T04:25:11;16.90;99.90
27890;DHT22;15238;49.082;9.102;2023-07-13T04:27:12;16.90;99.90
27890;DHT22;15238;49.082;9.102;2023-07-13T04:29:12;16.90;99.90
27890;DHT22;15238;49.082;9.102;2023-07-13T04:31:14;16.90;99.90
27890;DHT22;15238;49.082;9.102;2023-07-13T04:33:14;16.90;99.90
27890;DHT22;15238;49.082;9.102;2023-07-13T04:35:17;17.00;99.90
27890;DHT22;15238;49.082;9.102;2023-07-13T04:37:17;17.10;99.90
27890;DHT22;15238;49.082;9.102;2023-07-13T04:39:18;17.10;99.90
27890;DHT22;15238;49.082;9.102;2023-07-13T04:41:19;17.10;99.90
27890;DHT22;15238;49.082;9.102;2023-07-13T04:43:19;17.20;99.90
27890;DHT22;15238;49.082;9.102;2023-07-13T04:45:20;17.20;99.90
27890;DHT22;15238;49.082;9.102;2023-07-13T04:47:21;17.20;99.90
27890;DHT22;15238;49.082;9.102;2023-07-13T04:49:22;17.20;99.90
27890;DHT22;15238;49.082;9.102;2023-07-13T04:51:22;17.20;99.90
27890;DHT22;15238;49.082;9.102;2023-07-13T04:53:23;17.30;99.90
27890;DHT22;15238;49.082;9.102;2023-07-13T04:55:23;17.40;99.90
27890;DHT22;15238;49.082;9.102;2023-07-13T04:57:24;17.40;99.90
27890;DHT22;15238;49.082;9.102;2023-07-13T04:59:24;17.50;99.90
27890;DHT22;15238;49.082;9.102;2023-07-13T05:01:25;17.60;99.90
27890;DHT22;15238;49.082;9.102;2023-07-13T05:03:25;17.60;99.90
27890;DHT22;15238;49.082;9.102;2023-07-13T05:05:27;17.70;99.90
27890;DHT22;15238;49.082;9.102;2023-07-13T05:07:27;17.70;99.90
27890;DHT22;15238;49.082;9.102;2023-07-13T05:09:28;17.80;99.90
27890;DHT22;15238;49.082;9.102;2023-07-13T05:11:28;17.90;99.90
27890;DHT22;15238;49.082;9.102;2023-07-13T05:13:29;18.10;99.90
27890;DHT22;15238;49.082;9.102;2023-07-13T05:15:30;18.30;99.90
27890;DHT22;15238;49.082;9.102;2023-07-13T05:17:30;18.40;99.90
27890;DHT22;15238;49.082;9.102;2023-07-13T05:19:31;18.40;99.90
27890;DHT22;15238;49.082;9.102;2023-07-13T05:21:32;18.50;99.90
27890;DHT22;15238;49.082;9.102;2023-07-13T05:23:33;18.50;99.90
27890;DHT22;15238;49.082;9.102;2023-07-13T05:25:34;18.60;99.90
27890;DHT22;15238;49.082;9.102;2023-07-13T05:27:35;18.60;99.90
27890;DHT22;15238;49.082;9.102;2023-07-13T05:29:36;18.60;99.90
27890;DHT22;15238;49.082;9.102;2023-07-13T05:31:36;18.70;99.90
27890;DHT22;15238;49.082;9.102;2023-07-13T05:33:37;18.70;99.90
27890;DHT22;15238;49.082;9.102;2023-07-13T05:35:38;18.70;99.90
27890;DHT22;15238;49.082;9.102;2023-07-13T05:37:38;18.70;99.90
27890;DHT22;15238;49.082;9.102;2023-07-13T05:39:39;18.70;99.90
27890;DHT22;15238;49.082;9.102;2023-07-13T05:41:40;18.70;99.90
27890;DHT22;15238;49.082;9.102;2023-07-13T05:43:41;18.70;99.90
27890;DHT22;15238;49.082;9.102;2023-07-13T05:45:41;18.80;99.90
27890;DHT22;15238;49.082;9.102;2023-07-13T05:47:42;18.90;99.90
27890;DHT22;15238;49.082;9.102;2023-07-13T05:49:43;18.90;99.90
27890;DHT22;15238;49.082;9.102;2023-07-13T05:51:44;18.90;99.90
27890;DHT22;15238;49.082;9.102;2023-07-13T05:53:45;18.80;99.90
27890;DHT22;15238;49.082;9.102;2023-07-13T05:55:47;18.90;99.90
27890;DHT22;15238;49.082;9.102;2023-07-13T05:57:51;18.80;99.90
27890;DHT22;15238;49.082;9.102;2023-07-13T05:59:51;18.90;99.90
27890;DHT22;15238;49.082;9.102;2023-07-13T06:01:52;18.90;99.90
27890;DHT22;15238;49.082;9.102;2023-07-13T06:03:52;18.90;99.90
27890;DHT22;15238;49.082;9.102;2023-07-13T06:05:53;18.90;99.90
27890;DHT22;15238;49.082;9.102;2023-07-13T06:07:54;19.00;99.90
27890;DHT22;15238;49.082;9.102;2023-07-13T06:09:55;19.00;99.90
27890;DHT22;15238;49.082;9.102;2023-07-13T06:11:55;19.00;99.90
27890;DHT22;15238;49.082;9.102;2023-07-13T06:13:56;19.10;99.90
27890;DHT22;15238;49.082;9.102;2023-07-13T06:15:57;19.20;99.90
27890;DHT22;15238;49.082;9.102;2023-07-13T06:17:57;19.20;99.90
27890;DHT22;15238;49.082;9.102;2023-07-13T06:19:58;19.20;99.90
27890;DHT22;15238;49.082;9.102;2023-07-13T06:21:58;19.20;99.90
27890;DHT22;15238;49.082;9.102;2023-07-13T06:23:59;19.30;99.90
27890;DHT22;15238;49.082;9.102;2023-07-13T06:26:00;19.30;99.90
27890;DHT22;15238;49.082;9.102;2023-07-13T06:28:00;19.40;99.90
27890;DHT22;15238;49.082;9.102;2023-07-13T06:30:01;19.40;99.90
27890;DHT22;15238;49.082;9.102;2023-07-13T06:32:01;19.40;99.90
27890;DHT22;15238;49.082;9.102;2023-07-13T06:34:02;19.40;99.90
27890;DHT22;15238;49.082;9.102;2023-07-13T06:36:04;19.50;99.90
27890;DHT22;15238;49.082;9.102;2023-07-13T06:38:05;19.40;99.90
27890;DHT22;15238;49.082;9.102;2023-07-13T06:40:07;19.40;99.90
27890;DHT22;15238;49.082;9.102;2023-07-13T06:42:07;19.60;99.90
27890;DHT22;15238;49.082;9.102;2023-07-13T06:44:08;19.90;99.90
27890;DHT22;15238;49.082;9.102;2023-07-13T06:46:09;20.10;99.90
27890;DHT22;15238;49.082;9.102;2023-07-13T06:48:10;20.40;99.90
27890;DHT22;15238;49.082;9.102;2023-07-13T06:50:10;20.30;99.90
27890;DHT22;15238;49.082;9.102;2023-07-13T06:52:11;20.50;99.90
27890;DHT22;15238;49.082;9.102;2023-07-13T06:54:13;20.60;99.90
27890;DHT22;15238;49.082;9.102;2023-07-13T06:56:14;21.00;99.50
27890;DHT22;15238;49.082;9.102;2023-07-13T06:58:18;21.40;97.90
27890;DHT22;15238;49.082;9.102;2023-07-13T07:00:19;21.60;97.70
27890;DHT22;15238;49.082;9.102;2023-07-13T07:02:19;21.50;96.90
27890;DHT22;15238;49.082;9.102;2023-07-13T07:04:20;21.50;97.40
27890;DHT22;15238;49.082;9.102;2023-07-13T07:06:21;21.70;97.30
27890;DHT22;15238;49.082;9.102;2023-07-13T07:08:24;21.90;97.00
27890;DHT22;15238;49.082;9.102;2023-07-13T07:10:24;22.20;95.70
27890;DHT22;15238;49.082;9.102;2023-07-13T07:12:25;22.20;95.50
27890;DHT22;15238;49.082;9.102;2023-07-13T07:14:26;22.30;95.50
27890;DHT22;15238;49.082;9.102;2023-07-13T07:16:26;22.20;93.20
27890;DHT22;15238;49.082;9.102;2023-07-13T07:18:26;22.10;93.60
27890;DHT22;15238;49.082;9.102;2023-07-13T07:20:27;22.00;93.50
27890;DHT22;15238;49.082;9.102;2023-07-13T07:22:28;22.20;93.80
27890;DHT22;15238;49.082;9.102;2023-07-13T07:24:29;22.50;92.80
27890;DHT22;15238;49.082;9.102;2023-07-13T07:26:29;23.00;92.80
27890;DHT22;15238;49.082;9.102;2023-07-13T07:28:30;23.30;91.70
27890;DHT22;15238;49.082;9.102;2023-07-13T07:30:31;23.20;91.10
27890;DHT22;15238;49.082;9.102;2023-07-13T07:32:32;23.20;90.90
27890;DHT22;15238;49.082;9.102;2023-07-13T07:34:33;23.00;91.10
27890;DHT22;15238;49.082;9.102;2023-07-13T07:36:34;23.20;91.00
27890;DHT22;15238;49.082;9.102;2023-07-13T07:38:34;23.40;90.70
27890;DHT22;15238;49.082;9.102;2023-07-13T07:40:39;23.50;91.10
27890;DHT22;15238;49.082;9.102;2023-07-13T07:42:40;23.90;90.20
27890;DHT22;15238;49.082;9.102;2023-07-13T07:44:41;24.00;90.30
27890;DHT22;15238;49.082;9.102;2023-07-13T07:46:41;24.00;90.10
27890;DHT22;15238;49.082;9.102;2023-07-13T07:48:42;23.90;87.00
27890;DHT22;15238;49.082;9.102;2023-07-13T07:50:43;24.00;86.10
27890;DHT22;15238;49.082;9.102;2023-07-13T07:52:43;24.20;86.40
27890;DHT22;15238;49.082;9.102;2023-07-13T07:54:44;24.20;82.40
27890;DHT22;15238;49.082;9.102;2023-07-13T07:56:45;24.00;84.30
27890;DHT22;15238;49.082;9.102;2023-07-13T07:58:45;24.00;84.90
27890;DHT22;15238;49.082;9.102;2023-07-13T08:00:46;24.20;83.70
27890;DHT22;15238;49.082;9.102;2023-07-13T08:02:47;24.30;84.60
27890;DHT22;15238;49.082;9.102;2023-07-13T08:04:48;24.20;84.40
27890;DHT22;15238;49.082;9.102;2023-07-13T08:06:49;24.40;84.40
27890;DHT22;15238;49.082;9.102;2023-07-13T08:08:49;24.70;81.60
27890;DHT22;15238;49.082;9.102;2023-07-13T08:10:50;24.90;82.50
27890;DHT22;15238;49.082;9.102;2023-07-13T08:12:51;25.10;82.90
27890;DHT22;15238;49.082;9.102;2023-07-13T08:14:52;25.20;81.20
27890;DHT22;15238;49.082;9.102;2023-07-13T08:16:57;24.80;80.20
27890;DHT22;15238;49.082;9.102;2023-07-13T08:18:59;24.60;82.50
27890;DHT22;15238;49.082;9.102;2023-07-13T08:21:05;25.10;80.70
27890;DHT22;15238;49.082;9.102;2023-07-13T08:23:07;25.60;79.40
27890;DHT22;15238;49.082;9.102;2023-07-13T08:25:08;25.80;78.20
27890;DHT22;15238;49.082;9.102;2023-07-13T08:27:10;25.80;76.20
27890;DHT22;15238;49.082;9.102;2023-07-13T08:29:11;25.50;77.20
27890;DHT22;15238;49.082;9.102;2023-07-13T08:31:12;25.40;76.20
27890;DHT22;15238;49.082;9.102;2023-07-13T08:33:16;25.20;76.70
27890;DHT22;15238;49.082;9.102;2023-07-13T08:35:17;25.10;78.20
27890;DHT22;15238;49.082;9.102;2023-07-13T08:37:18;24.90;77.90
27890;DHT22;15238;49.082;9.102;2023-07-13T08:39:20;25.20;78.50
27890;DHT22;15238;49.082;9.102;2023-07-13T08:41:20;25.40;77.60
27890;DHT22;15238;49.082;9.102;2023-07-13T08:43:30;25.50;76.90
27890;DHT22;15238;49.082;9.102;2023-07-13T08:45:46;25.30;78.20
27890;DHT22;15238;49.082;9.102;2023-07-13T08:50:03;25.20;76.70
27890;DHT22;15238;49.082;9.102;2023-07-13T08:52:15;25.20;77.70
27890;DHT22;15238;49.082;9.102;2023-07-13T08:54:26;25.30;77.20
27890;DHT22;15238;49.082;9.102;2023-07-13T08:56:30;25.50;76.00
27890;DHT22;15238;49.082;9.102;2023-07-13T08:58:31;25.70;75.90
27890;DHT22;15238;49.082;9.102;2023-07-13T09:00:53;25.90;75.00
27890;DHT22;15238;49.082;9.102;2023-07-13T09:02:59;25.60;74.80
27890;DHT22;15238;49.082;9.102;2023-07-13T09:12:17;26.20;74.00
27890;DHT22;15238;49.082;9.102;2023-07-13T09:14:45;26.60;73.60
27890;DHT22;15238;49.082;9.102;2023-07-13T09:16:48;26.70;70.90
27890;DHT22;15238;49.082;9.102;2023-07-13T09:18:51;26.30;71.00
27890;DHT22;15238;49.082;9.102;2023-07-13T09:21:00;26.40;71.00
27890;DHT22;15238;49.082;9.102;2023-07-13T09:23:07;26.50;71.80
27890;DHT22;15238;49.082;9.102;2023-07-13T09:25:27;25.90;71.20
27890;DHT22;15238;49.082;9.102;2023-07-13T09:27:39;26.30;71.80
27890;DHT22;15238;49.082;9.102;2023-07-13T09:29:46;26.60;72.00
27890;DHT22;15238;49.082;9.102;2023-07-13T09:31:54;26.60;70.60
27890;DHT22;15238;49.082;9.102;2023-07-13T09:33:55;25.70;71.70
27890;DHT22;15238;49.082;9.102;2023-07-13T09:35:58;25.40;71.60
27890;DHT22;15238;49.082;9.102;2023-07-13T09:38:11;25.70;71.80
27890;DHT22;15238;49.082;9.102;2023-07-13T09:40:25;25.80;71.80
27890;DHT22;15238;49.082;9.102;2023-07-13T09:42:28;26.00;72.20
27890;DHT22;15238;49.082;9.102;2023-07-13T09:44:51;26.10;72.90
27890;DHT22;15238;49.082;9.102;2023-07-13T09:46:54;26.30;72.50
27890;DHT22;15238;49.082;9.102;2023-07-13T09:48:56;26.60;72.30
27890;DHT22;15238;49.082;9.102;2023-07-13T09:50:57;26.80;70.50
27890;DHT22;15238;49.082;9.102;2023-07-13T09:53:15;26.90;69.70
27890;DHT22;15238;49.082;9.102;2023-07-13T09:55:34;26.30;69.80
27890;DHT22;15238;49.082;9.102;2023-07-13T09:57:35;26.50;68.80
27890;DHT22;15238;49.082;9.102;2023-07-13T09:59:40;26.40;69.00
27890;DHT22;15238;49.082;9.102;2023-07-13T10:01:41;26.20;70.70
27890;DHT22;15238;49.082;9.102;2023-07-13T10:03:53;26.50;71.80
27890;DHT22;15238;49.082;9.102;2023-07-13T10:05:54;26.60;70.70
27890;DHT22;15238;49.082;9.102;2023-07-13T10:07:59;26.80;70.30
27890;DHT22;15238;49.082;9.102;2023-07-13T10:10:00;26.50;68.70
27890;DHT22;15238;49.082;9.102;2023-07-13T10:12:01;26.70;69.20
27890;DHT22;15238;49.082;9.102;2023-07-13T10:14:16;26.60;68.70
27890;DHT22;15238;49.082;9.102;2023-07-13T10:16:17;26.40;69.70
27890;DHT22;15238;49.082;9.102;2023-07-13T10:18:20;26.70;69.60
27890;DHT22;15238;49.082;9.102;2023-07-13T10:20:21;26.60;67.20
27890;DHT22;15238;49.082;9.102;2023-07-13T10:24:43;26.20;68.20
27890;DHT22;15238;49.082;9.102;2023-07-13T10:27:05;26.00;68.90
27890;DHT22;15238;49.082;9.102;2023-07-13T10:29:12;25.80;68.00
27890;DHT22;15238;49.082;9.102;2023-07-13T10:31:15;26.10;68.10
27890;DHT22;15238;49.082;9.102;2023-07-13T10:33:16;26.00;69.00
27890;DHT22;15238;49.082;9.102;2023-07-13T10:35:19;26.40;69.10
27890;DHT22;15238;49.082;9.102;2023-07-13T10:37:27;26.80;69.50
27890;DHT22;15238;49.082;9.102;2023-07-13T10:39:30;27.00;65.80
27890;DHT22;15238;49.082;9.102;2023-07-13T10:41:35;26.60;66.30
27890;DHT22;15238;49.082;9.102;2023-07-13T10:43:54;26.50;66.30
27890;DHT22;15238;49.082;9.102;2023-07-13T10:45:58;26.80;68.50
27890;DHT22;15238;49.082;9.102;2023-07-13T10:47:59;27.10;66.80
27890;DHT22;15238;49.082;9.102;2023-07-13T10:50:01;27.60;67.90
27890;DHT22;15238;49.082;9.102;2023-07-13T10:52:03;26.90;62.70
27890;DHT22;15238;49.082;9.102;2023-07-13T10:54:19;26.50;63.50
27890;DHT22;15238;49.082;9.102;2023-07-13T10:56:29;26.30;64.70
27890;DHT22;15238;49.082;9.102;2023-07-13T10:58:40;26.20;65.90
27890;DHT22;15238;49.082;9.102;2023-07-13T11:00:50;26.30;65.30
27890;DHT22;15238;49.082;9.102;2023-07-13T11:03:01;26.80;64.90
27890;DHT22;15238;49.082;9.102;2023-07-13T11:05:25;26.80;62.70
27890;DHT22;15238;49.082;9.102;2023-07-13T11:07:30;27.00;62.90
27890;DHT22;15238;49.082;9.102;2023-07-13T11:11:38;27.60;61.80
27890;DHT22;15238;49.082;9.102;2023-07-13T11:13:55;27.00;60.80
27890;DHT22;15238;49.082;9.102;2023-07-13T11:15:57;26.60;61.80
27890;DHT22;15238;49.082;9.102;2023-07-13T11:18:03;26.90;62.70
27890;DHT22;15238;49.082;9.102;2023-07-13T11:22:15;26.70;63.20
27890;DHT22;15238;49.082;9.102;2023-07-13T11:24:17;27.00;62.10
27890;DHT22;15238;49.082;9.102;2023-07-13T11:28:49;27.20;61.90
27890;DHT22;15238;49.082;9.102;2023-07-13T11:35:17;27.10;61.60
27890;DHT22;15238;49.082;9.102;2023-07-13T11:37:19;27.20;62.90
27890;DHT22;15238;49.082;9.102;2023-07-13T11:39:33;27.60;61.20
27890;DHT22;15238;49.082;9.102;2023-07-13T11:41:44;27.90;59.40
27890;DHT22;15238;49.082;9.102;2023-07-13T11:43:48;27.70;55.90
27890;DHT22;15238;49.082;9.102;2023-07-13T11:45:50;28.00;57.00
27890;DHT22;15238;49.082;9.102;2023-07-13T11:47:50;28.10;56.90
27890;DHT22;15238;49.082;9.102;2023-07-13T11:49:54;28.10;58.30
27890;DHT22;15238;49.082;9.102;2023-07-13T11:51:59;27.70;59.10
27890;DHT22;15238;49.082;9.102;2023-07-13T11:54:11;27.60;59.50
27890;DHT22;15238;49.082;9.102;2023-07-13T11:56:14;27.70;58.20
27890;DHT22;15238;49.082;9.102;2023-07-13T11:58:19;27.30;58.30
27890;DHT22;15238;49.082;9.102;2023-07-13T12:00:23;27.40;59.60
27890;DHT22;15238;49.082;9.102;2023-07-13T12:02:31;27.60;59.30
27890;DHT22;15238;49.082;9.102;2023-07-13T12:04:34;28.00;59.80
27890;DHT22;15238;49.082;9.102;2023-07-13T12:06:35;28.40;58.50
27890;DHT22;15238;49.082;9.102;2023-07-13T12:08:39;28.30;59.00
27890;DHT22;15238;49.082;9.102;2023-07-13T12:10:43;28.50;58.00
27890;DHT22;15238;49.082;9.102;2023-07-13T12:12:56;28.50;57.30
27890;DHT22;15238;49.082;9.102;2023-07-13T12:14:57;28.40;54.60
27890;DHT22;15238;49.082;9.102;2023-07-13T12:16:57;28.00;55.40
27890;DHT22;15238;49.082;9.102;2023-07-13T12:18:59;28.10;56.10
27890;DHT22;15238;49.082;9.102;2023-07-13T12:21:00;28.00;55.50
27890;DHT22;15238;49.082;9.102;2023-07-13T12:23:01;28.20;57.20
27890;DHT22;15238;49.082;9.102;2023-07-13T12:25:03;28.30;57.30
27890;DHT22;15238;49.082;9.102;2023-07-13T12:27:05;28.10;55.90
27890;DHT22;15238;49.082;9.102;2023-07-13T12:29:07;28.30;56.70
27890;DHT22;15238;49.082;9.102;2023-07-13T12:31:24;28.40;57.10
27890;DHT22;15238;49.082;9.102;2023-07-13T12:33:28;28.30;56.40
27890;DHT22;15238;49.082;9.102;2023-07-13T12:35:30;28.10;56.50
27890;DHT22;15238;49.082;9.102;2023-07-13T12:37:34;28.40;56.50
27890;DHT22;15238;49.082;9.102;2023-07-13T12:39:45;28.30;55.90
27890;DHT22;15238;49.082;9.102;2023-07-13T12:41:47;28.30;56.60
27890;DHT22;15238;49.082;9.102;2023-07-13T12:43:48;28.00;57.90
27890;DHT22;15238;49.082;9.102;2023-07-13T12:45:58;28.00;56.60
27890;DHT22;15238;49.082;9.102;2023-07-13T12:48:14;27.80;58.20
27890;DHT22;15238;49.082;9.102;2023-07-13T12:50:18;28.10;59.30
27890;DHT22;15238;49.082;9.102;2023-07-13T12:52:28;28.00;58.20
27890;DHT22;15238;49.082;9.102;2023-07-13T12:54:33;28.20;58.70
27890;DHT22;15238;49.082;9.102;2023-07-13T12:56:33;28.30;58.50
27890;DHT22;15238;49.082;9.102;2023-07-13T12:58:41;28.30;58.40
27890;DHT22;15238;49.082;9.102;2023-07-13T13:00:49;28.10;58.30
27890;DHT22;15238;49.082;9.102;2023-07-13T13:02:51;28.00;59.30
27890;DHT22;15238;49.082;9.102;2023-07-13T13:04:52;28.00;59.40
27890;DHT22;15238;49.082;9.102;2023-07-13T13:07:03;28.30;59.40
27890;DHT22;15238;49.082;9.102;2023-07-13T13:09:12;28.00;58.20
27890;DHT22;15238;49.082;9.102;2023-07-13T13:11:20;28.00;59.50
27890;DHT22;15238;49.082;9.102;2023-07-13T13:13:21;28.00;58.30
27890;DHT22;15238;49.082;9.102;2023-07-13T13:15:22;28.20;59.90
27890;DHT22;15238;49.082;9.102;2023-07-13T13:17:29;28.10;57.30
27890;DHT22;15238;49.082;9.102;2023-07-13T13:19:31;27.70;58.00
27890;DHT22;15238;49.082;9.102;2023-07-13T13:21:32;28.10;58.90